Time;durP1;ratioP1;P1;durP2;ratioP2;P2;SDS_P1;SDS_P2;PMS_P1;PMS_P2;Temp;Humidity;BMP_temperature;BMP_pressure;BME280_temperature;BME280_humidity;BME280_pressure;Samples;Min_cycle;Max_cycle;Signal;HPM_P1;HPM_P2
2023/02/27 00:01:54;;;;;;;1.67;0.90;;;;;;;3.03;86.55;102986.81;5002763;28;20038;-71
2023/02/27 00:04:20;;;;;;;1.80;1.27;;;;;;;3.04;86.54;103001.53;5005541;28;20042;-72
2023/02/27 00:06:45;;;;;;;2.88;1.25;;;;;;;3.03;86.40;102999.78;5013884;28;20411;-72
2023/02/27 00:09:11;;;;;;;1.20;0.98;;;;;;;3.03;86.39;103003.22;5005215;28;20033;-72
2023/02/27 00:11:37;;;;;;;2.10;1.00;;;;;;;3.03;86.48;103003.22;5018840;28;20037;-72
2023/02/27 00:14:03;;;;;;;2.15;0.80;;;;;;;3.03;86.65;103002.38;5020575;28;20033;-72
2023/02/27 00:16:28;;;;;;;0.65;0.52;;;;;;;3.03;86.76;103013.59;5011475;28;20048;-72
2023/02/27 00:18:55;;;;;;;1.38;0.80;;;;;;;3.04;86.76;103012.75;5002360;28;20372;-72
2023/02/27 00:21:21;;;;;;;2.42;0.80;;;;;;;3.04;87.04;103010.16;5003488;28;20118;-72
2023/02/27 00:23:47;;;;;;;0.77;0.70;;;;;;;3.05;87.00;103011.91;5004147;28;20349;-72
2023/02/27 00:26:13;;;;;;;2.30;0.88;;;;;;;3.04;86.76;103009.31;5007040;28;20046;-72
2023/02/27 00:28:38;;;;;;;2.08;0.75;;;;;;;3.02;86.48;103010.94;5022196;28;20367;-72
2023/02/27 00:31:03;;;;;;;0.80;0.80;;;;;;;3.02;86.57;103008.34;4990365;28;20046;-72
2023/02/27 00:33:29;;;;;;;1.25;0.75;;;;;;;3.02;86.77;103000.59;5021190;28;20094;-72
2023/02/27 00:35:56;;;;;;;1.60;0.80;;;;;;;3.03;86.73;103003.22;5023228;28;20061;-72
2023/02/27 00:38:22;;;;;;;1.60;0.95;;;;;;;3.04;86.96;102993.78;5007248;28;20112;-72
2023/02/27 00:40:47;;;;;;;2.55;0.73;;;;;;;3.05;87.00;103000.69;5015441;28;20253;-72
2023/02/27 00:43:12;;;;;;;0.98;0.60;;;;;;;3.05;86.96;102993.78;5009010;28;20053;-72
2023/02/27 00:45:38;;;;;;;1.63;0.80;;;;;;;3.06;87.00;102992.97;5004748;28;20089;-72
2023/02/27 00:48:03;;;;;;;1.95;0.68;;;;;;;3.07;87.02;102988.66;5016404;28;20045;-72
2023/02/27 00:50:28;;;;;;;2.72;0.90;;;;;;;3.06;87.08;102989.50;5013821;28;20042;-72
2023/02/27 00:52:54;;;;;;;0.70;0.60;;;;;;;3.05;87.03;102982.56;5014344;28;20045;-72
2023/02/27 00:55:19;;;;;;;2.38;0.70;;;;;;;3.06;87.21;102984.31;5009760;28;20109;-72
2023/02/27 00:57:44;;;;;;;1.13;0.63;;;;;;;3.07;87.17;102988.66;5012145;28;20045;-72
2023/02/27 01:00:10;;;;;;;0.60;0.60;;;;;;;3.07;87.31;102986.06;5021874;28;20084;-72
2023/02/27 01:02:36;;;;;;;0.45;0.45;;;;;;;3.08;87.17;102993.00;5018045;28;20037;-72
2023/02/27 01:05:02;;;;;;;2.15;0.63;;;;;;;3.08;87.36;102991.28;5013280;28;20053;-72
2023/02/27 01:07:27;;;;;;;2.00;0.75;;;;;;;3.07;87.06;102989.56;5007713;28;20069;-72
2023/02/27 01:09:53;;;;;;;0.57;0.50;;;;;;;3.08;87.07;103000.78;5023280;28;20053;-72
2023/02/27 01:12:18;;;;;;;0.93;0.50;;;;;;;3.08;87.00;102998.19;5019991;28;20046;-72
2023/02/27 01:14:43;;;;;;;0.40;0.40;;;;;;;3.06;87.21;102995.56;5010388;28;20042;-72
2023/02/27 01:17:09;;;;;;;0.80;0.57;;;;;;;3.07;87.16;102992.13;5016909;28;20038;-72
2023/02/27 01:19:34;;;;;;;2.05;0.70;;;;;;;3.07;87.36;102992.13;5002777;28;20037;-72
2023/02/27 01:22:00;;;;;;;0.38;0.38;;;;;;;3.08;87.30;102991.28;5004451;28;20042;-72
2023/02/27 01:24:25;;;;;;;1.85;0.73;;;;;;;3.08;87.54;102985.25;5002838;28;20042;-72
2023/02/27 01:26:51;;;;;;;1.15;0.70;;;;;;;3.07;87.31;102989.56;5004954;28;20046;-72
2023/02/27 01:29:17;;;;;;;0.75;0.60;;;;;;;3.08;87.55;102982.66;5002634;28;20345;-72
2023/02/27 01:31:43;;;;;;;1.50;0.65;;;;;;;3.07;87.49;102981.78;5004047;28;20084;-72
2023/02/27 01:34:09;;;;;;;1.52;0.60;;;;;;;3.07;87.61;102984.38;4983534;28;20077;-72
2023/02/27 01:36:34;;;;;;;1.85;0.60;;;;;;;3.08;87.69;102982.66;4985708;28;20358;-72
2023/02/27 01:38:59;;;;;;;1.90;0.70;;;;;;;3.08;87.78;102988.69;5004629;28;20290;-72
2023/02/27 01:41:25;;;;;;;0.55;0.40;;;;;;;3.08;87.76;102985.25;5002446;28;20061;-72
2023/02/27 01:44:02;;;;;;;0.50;0.50;;;;;;;3.08;87.75;102982.66;5018579;28;20046;-72
2023/02/27 01:46:29;;;;;;;0.88;0.40;;;;;;;3.07;87.75;102974.00;5022213;28;20433;-72
2023/02/27 01:48:59;;;;;;;0.55;0.50;;;;;;;3.08;87.95;102977.47;5003905;28;20039;-72
2023/02/27 01:51:28;;;;;;;1.27;0.60;;;;;;;3.06;87.81;102969.66;5002883;28;20121;-72
2023/02/27 01:53:55;;;;;;;1.30;0.50;;;;;;;3.07;88.02;102975.69;5005373;28;20042;-72
2023/02/27 01:56:24;;;;;;;0.55;0.50;;;;;;;3.06;87.96;102976.56;5002474;28;20046;-72
2023/02/27 01:58:52;;;;;;;1.30;0.52;;;;;;;3.06;88.01;102977.44;5007378;28;20046;-72
2023/02/27 02:01:19;;;;;;;0.40;0.40;;;;;;;3.05;88.10;102973.06;5001882;28;20325;-72
2023/02/27 02:03:59;;;;;;;0.77;0.50;;;;;;;3.05;88.21;102974.78;5008033;28;20050;-72
2023/02/27 02:06:25;;;;;;;0.90;0.63;;;;;;;3.04;88.18;102973.06;5002020;28;20026;-71
2023/02/27 02:08:52;;;;;;;0.95;0.50;;;;;;;3.03;87.91;102969.56;5008494;28;20057;-71
2023/02/27 02:11:19;;;;;;;0.40;0.40;;;;;;;3.03;88.18;102979.06;5001639;28;20058;-71
2023/02/27 02:13:45;;;;;;;0.40;0.40;;;;;;;3.02;88.26;102974.72;5009728;28;20054;-71
2023/02/27 02:16:40;;;;;;;0.57;0.57;;;;;;;3.01;88.14;102978.16;5002073;28;20049;-71
2023/02/27 02:19:37;;;;;;;0.70;0.50;;;;;;;3.00;88.18;102985.06;5008472;28;20517;-71
2023/02/27 02:22:08;;;;;;;0.93;0.55;;;;;;;2.99;88.27;102985.00;5017259;28;20038;-71
2023/02/27 02:24:53;;;;;;;1.35;0.60;;;;;;;2.98;88.23;102984.13;5017863;28;20041;-71
2023/02/27 02:27:31;;;;;;;0.47;0.32;;;;;;;2.96;88.11;102979.75;5015109;28;20272;-71
2023/02/27 02:30:38;;;;;;;0.98;0.40;;;;;;;2.93;88.14;102987.41;5020395;28;20053;-71
2023/02/27 02:33:31;;;;;;;2.67;0.60;;;;;;;2.89;88.07;102978.69;5009996;28;20042;-71
2023/02/27 02:36:35;;;;;;;0.45;0.45;;;;;;;2.86;88.11;102979.50;5001604;28;20056;-71
2023/02/27 02:39:19;;;;;;;1.70;0.57;;;;;;;2.84;88.00;102980.31;4994152;28;20118;-71
2023/02/27 02:42:15;;;;;;;0.57;0.50;;;;;;;2.83;88.16;102987.19;5001790;28;20049;-71
2023/02/27 02:44:52;;;;;;;1.20;0.77;;;;;;;2.82;88.16;102984.56;5013453;28;20373;-71
2023/02/27 02:47:36;;;;;;;1.05;0.45;;;;;;;2.81;88.18;102985.41;5017818;28;20056;-71
2023/02/27 02:51:03;;;;;;;0.93;0.60;;;;;;;2.79;88.19;102977.59;5001902;28;20046;-71
2023/02/27 02:53:37;;;;;;;0.95;0.50;;;;;;;2.78;88.08;102985.31;4903553;29;20036;-71
2023/02/27 02:56:05;;;;;;;0.60;0.50;;;;;;;2.77;88.11;102986.19;4901812;29;20081;-71
2023/02/27 02:59:03;;;;;;;1.23;0.45;;;;;;;2.75;88.12;102980.06;4956241;28;20046;-71
2023/02/27 03:01:37;;;;;;;0.52;0.47;;;;;;;2.74;88.22;102986.09;5001132;28;20069;-71
2023/02/27 03:04:11;;;;;;;0.40;0.40;;;;;;;2.73;88.31;102986.91;5017247;28;20342;-71
2023/02/27 03:06:42;;;;;;;0.85;0.55;;;;;;;2.71;88.31;102980.81;4982630;28;20038;-72
2023/02/27 03:09:22;;;;;;;1.42;0.63;;;;;;;2.69;88.34;102979.09;5005664;28;20276;-72
2023/02/27 03:11:50;;;;;;;0.60;0.60;;;;;;;2.67;88.43;102985.03;5001605;28;20041;-72
2023/02/27 03:14:52;;;;;;;0.60;0.52;;;;;;;2.65;88.35;102979.81;5017197;28;20113;-72
2023/02/27 03:17:26;;;;;;;0.68;0.60;;;;;;;2.65;88.35;102984.13;4970133;28;20046;-72
2023/02/27 03:20:05;;;;;;;1.02;0.50;;;;;;;2.64;88.49;102983.25;4982423;28;20133;-72
2023/02/27 03:22:37;;;;;;;0.80;0.70;;;;;;;2.64;88.48;102987.56;4994749;28;20049;-72
2023/02/27 03:25:06;;;;;;;1.60;0.70;;;;;;;2.61;88.46;102990.06;4985865;28;20043;-72
2023/02/27 03:27:39;;;;;;;1.30;0.60;;;;;;;2.60;88.41;102990.88;4996547;28;20144;-72
2023/02/27 03:30:09;;;;;;;1.45;0.68;;;;;;;2.58;88.45;102987.38;4985985;28;20356;-72
2023/02/27 03:32:55;;;;;;;0.68;0.50;;;;;;;2.56;88.24;102989.06;5019815;28;20044;-71
2023/02/27 03:35:23;;;;;;;1.52;0.60;;;;;;;2.53;88.30;102989.88;4985657;28;20034;-71
2023/02/27 03:37:57;;;;;;;1.13;0.63;;;;;;;2.50;88.16;102985.47;5005976;28;20068;-73
2023/02/27 03:40:25;;;;;;;0.77;0.50;;;;;;;2.48;88.26;102988.84;5020275;28;20058;-73
2023/02/27 03:43:26;;;;;;;0.85;0.73;;;;;;;2.45;87.98;102997.38;5002127;28;20402;-73
2023/02/27 03:46:11;;;;;;;0.50;0.50;;;;;;;2.43;88.04;102986.13;5000283;28;20045;-73
2023/02/27 03:48:43;;;;;;;3.20;0.60;;;;;;;2.42;88.18;102984.41;5001800;28;20029;-73
2023/02/27 03:51:09;;;;;;;0.40;0.40;;;;;;;2.41;88.13;102990.38;5001204;28;20034;-73
2023/02/27 03:53:42;;;;;;;0.75;0.50;;;;;;;2.39;88.25;102976.53;5005279;28;20046;-73
2023/02/27 03:56:12;;;;;;;0.75;0.50;;;;;;;2.39;88.03;102984.31;5019768;28;20061;-73
2023/02/27 03:58:37;;;;;;;0.40;0.40;;;;;;;2.38;88.31;102992.88;5015436;28;20022;-72
2023/02/27 04:01:03;;;;;;;1.02;0.65;;;;;;;2.37;88.19;102982.53;5002628;28;20170;-72
2023/02/27 04:03:31;;;;;;;0.40;0.40;;;;;;;2.36;88.43;102986.78;5006443;28;20041;-72
2023/02/27 04:07:21;;;;;;;1.27;0.50;;;;;;;2.34;87.96;102993.63;5001136;28;20046;-72
2023/02/27 04:08:56;;;;;;;0.75;0.50;;;;;;;2.30;88.25;102999.56;5016108;28;20046;-72
2023/02/27 04:11:39;;;;;;;0.70;0.50;;;;;;;2.27;87.90;102996.88;5003869;28;20048;-72
2023/02/27 04:14:27;;;;;;;0.75;0.50;;;;;;;2.23;87.64;102997.63;5013023;28;20030;-72
2023/02/27 04:17:03;;;;;;;1.77;0.85;;;;;;;2.18;87.45;102994.03;5009290;28;20088;-72
2023/02/27 04:19:50;;;;;;;2.78;0.63;;;;;;;2.13;87.16;102999.09;5010810;28;20088;-72
2023/02/27 04:22:38;;;;;;;1.48;0.70;;;;;;;2.08;86.85;102998.94;5000281;28;20037;-72
2023/02/27 04:25:12;;;;;;;0.98;0.70;;;;;;;2.04;86.60;102994.53;5013985;28;20048;-72
2023/02/27 04:27:58;;;;;;;2.08;0.85;;;;;;;2.00;86.69;102995.28;5018235;28;20042;-72
2023/02/27 04:30:40;;;;;;;0.68;0.60;;;;;;;1.98;86.60;103002.06;5016485;28;20042;-72
2023/02/27 04:33:32;;;;;;;1.55;0.80;;;;;;;1.95;86.73;103002.00;5020005;28;20057;-72
2023/02/27 04:36:12;;;;;;;3.10;0.80;;;;;;;1.91;86.92;103008.78;4963300;28;20354;-72
2023/02/27 04:38:44;;;;;;;0.73;0.70;;;;;;;1.90;86.89;103011.31;5003249;28;20040;-72
2023/02/27 04:41:21;;;;;;;2.15;1.00;;;;;;;1.90;87.14;103019.09;5000038;28;20110;-72
2023/02/27 04:43:48;;;;;;;1.23;0.70;;;;;;;1.89;87.20;103013.03;5018100;28;20045;-72
2023/02/27 04:46:17;;;;;;;1.45;0.80;;;;;;;1.89;87.44;103013.03;5000034;28;20114;-72
2023/02/27 04:48:59;;;;;;;1.10;0.93;;;;;;;1.89;87.49;103022.47;5017378;28;20034;-72
2023/02/27 04:51:31;;;;;;;1.23;1.00;;;;;;;1.87;87.75;103018.97;4980449;28;20045;-72
2023/02/27 04:54:09;;;;;;;3.80;0.80;;;;;;;1.88;87.70;103025.91;5017364;28;20054;-72
2023/02/27 04:56:44;;;;;;;1.02;0.93;;;;;;;1.87;87.79;103022.47;5005310;28;20052;-72
2023/02/27 04:59:20;;;;;;;1.35;0.85;;;;;;;1.87;88.02;103024.16;5017712;28;20211;-72
2023/02/27 05:02:00;;;;;;;1.08;0.90;;;;;;;1.85;88.13;103033.56;4999598;28;20042;-72
2023/02/27 05:04:28;;;;;;;1.27;0.80;;;;;;;1.84;88.34;103039.56;5015876;28;20041;-72
2023/02/27 05:06:55;;;;;;;2.10;1.08;;;;;;;1.81;88.33;103042.06;4999693;28;20038;-72
2023/02/27 05:09:44;;;;;;;1.52;0.90;;;;;;;1.81;88.38;103044.63;4984181;28;20030;-72
2023/02/27 05:12:23;;;;;;;0.90;0.85;;;;;;;1.78;88.21;103044.53;5017468;28;20044;-72
2023/02/27 05:14:54;;;;;;;0.80;0.80;;;;;;;1.75;88.27;103041.84;5004544;28;20128;-72
2023/02/27 05:17:24;;;;;;;0.95;0.80;;;;;;;1.71;88.24;103036.59;5016371;28;20040;-72
2023/02/27 05:19:50;;;;;;;0.90;0.57;;;;;;;1.68;88.18;103041.66;5005046;28;20045;-72
2023/02/27 05:22:35;;;;;;;1.40;0.98;;;;;;;1.66;88.03;103043.31;5017363;28;20060;-72
2023/02/27 05:25:12;;;;;;;1.92;0.98;;;;;;;1.63;88.17;103032.88;5004297;28;20041;-72
2023/02/27 05:27:45;;;;;;;2.40;0.90;;;;;;;1.62;88.27;103045.75;5014915;28;20392;-72
2023/02/27 05:30:35;;;;;;;1.42;1.10;;;;;;;1.60;88.14;103037.97;5004720;28;20057;-72
2023/02/27 05:33:05;;;;;;;0.80;0.80;;;;;;;1.60;88.33;103043.16;5012425;28;20038;-72
2023/02/27 05:35:46;;;;;;;4.20;1.23;;;;;;;1.57;88.34;103040.47;5006722;28;20108;-72
2023/02/27 05:38:45;;;;;;;1.67;1.20;;;;;;;1.57;88.45;103043.03;5011899;28;20390;-72
2023/02/27 05:41:15;;;;;;;2.90;1.50;;;;;;;1.55;88.34;103042.13;5009966;28;20042;-72
2023/02/27 05:43:50;;;;;;;1.83;1.35;;;;;;;1.54;88.54;103040.34;5008408;28;20105;-72
2023/02/27 05:46:23;;;;;;;3.45;1.75;;;;;;;1.53;88.43;103042.06;5010419;28;20033;-72
2023/02/27 05:49:32;;;;;;;1.33;1.23;;;;;;;1.52;88.62;103042.00;5000949;28;20061;-72
2023/02/27 05:52:00;;;;;;;;;;;;;;;1.50;88.65;103041.97;5002275;28;20320;-72
2023/02/27 05:54:41;;;;;;;1.33;1.23;;;;;;;1.49;88.71;103047.06;4998520;28;19945;-72
2023/02/27 05:57:11;;;;;;;4.45;1.52;;;;;;;1.47;88.62;103048.72;5016750;28;20038;-72
2023/02/27 05:59:42;;;;;;;2.95;1.40;;;;;;;1.46;88.82;103041.81;5017828;28;20041;-72
2023/02/27 06:02:09;;;;;;;3.72;1.50;;;;;;;1.44;88.89;103049.53;5000785;28;20049;-72
2023/02/27 06:04:35;;;;;;;1.58;1.48;;;;;;;1.44;88.86;103056.41;4998146;28;20114;-72
2023/02/27 06:07:03;;;;;;;2.90;1.80;;;;;;;1.43;89.19;103058.06;4997522;28;20072;-72
2023/02/27 06:09:28;;;;;;;2.47;1.80;;;;;;;1.43;89.13;103063.25;5017755;28;20061;-72
2023/02/27 06:11:54;;;;;;;2.55;2.10;;;;;;;1.43;89.31;103063.25;5002619;28;20070;-72
2023/02/27 06:14:19;;;;;;;2.20;2.03;;;;;;;1.42;89.59;103069.25;4998520;28;20141;-72
2023/02/27 06:16:44;;;;;;;3.75;2.72;;;;;;;1.42;89.64;103060.59;5006618;28;20117;-72
2023/02/27 06:19:10;;;;;;;3.15;2.40;;;;;;;1.43;89.51;103067.53;4998798;28;20034;-72
2023/02/27 06:21:35;;;;;;;3.45;2.83;;;;;;;1.43;89.55;103067.53;5009370;28;20108;-72
2023/02/27 06:24:00;;;;;;;3.88;2.35;;;;;;;1.43;89.69;103070.13;5003982;28;20051;-72
2023/02/27 06:26:26;;;;;;;3.63;2.58;;;;;;;1.43;89.83;103073.56;5001924;28;20046;-72
2023/02/27 06:28:51;;;;;;;2.60;1.88;;;;;;;1.42;90.01;103074.41;5006098;28;20051;-72
2023/02/27 06:31:16;;;;;;;6.00;2.55;;;;;;;1.42;89.96;103079.59;5010423;28;20050;-72
2023/02/27 06:33:42;;;;;;;3.75;1.88;;;;;;;1.43;90.13;103083.03;4998017;28;20416;-72
2023/02/27 06:36:07;;;;;;;5.82;2.40;;;;;;;1.43;90.15;103086.47;5003091;28;20045;-72
2023/02/27 06:38:33;;;;;;;2.30;1.90;;;;;;;1.44;90.32;103093.41;5017537;28;20045;-72
2023/02/27 06:40:58;;;;;;;2.38;1.65;;;;;;;1.44;90.32;103088.25;5011790;28;20046;-72
2023/02/27 06:43:24;;;;;;;2.38;1.90;;;;;;;1.46;90.37;103099.50;5017782;28;20037;-72
2023/02/27 06:45:53;;;;;;;3.25;2.03;;;;;;;1.46;90.54;103102.09;5004378;28;20394;-72
2023/02/27 06:48:18;;;;;;;3.67;2.00;;;;;;;1.48;90.59;103105.59;5014906;28;20341;-72
2023/02/27 06:50:43;;;;;;;2.50;1.67;;;;;;;1.50;90.70;103103.06;4996790;28;20097;-72
2023/02/27 06:53:09;;;;;;;4.28;2.03;;;;;;;1.50;90.78;103111.69;4989168;28;20044;-72
2023/02/27 06:55:34;;;;;;;3.75;2.05;;;;;;;1.50;90.98;103103.94;5006886;28;20034;-72
2023/02/27 06:58:00;;;;;;;2.20;2.10;;;;;;;1.51;90.99;103110.88;5014776;28;20436;-72
2023/02/27 07:00:25;;;;;;;2.50;2.30;;;;;;;1.52;91.15;103111.75;5003984;28;20438;-72
2023/02/27 07:02:51;;;;;;;2.97;2.28;;;;;;;1.53;91.27;103108.34;5007781;28;20050;-72
2023/02/27 07:05:17;;;;;;;3.33;2.38;;;;;;;1.52;91.21;103116.91;5006998;28;20112;-72
2023/02/27 07:07:42;;;;;;;2.40;2.20;;;;;;;1.51;91.39;103122.88;5016899;28;20037;-72
2023/02/27 07:10:11;;;;;;;3.47;2.10;;;;;;;1.51;91.43;103120.31;5014281;28;20375;-72
2023/02/27 07:12:37;;;;;;;2.20;1.88;;;;;;;1.50;91.54;103128.91;5016474;28;20029;-72
2023/02/27 07:15:03;;;;;;;2.95;1.85;;;;;;;1.48;91.45;103126.25;5005468;28;20072;-72
2023/02/27 07:17:30;;;;;;;2.53;1.88;;;;;;;1.47;91.59;103123.63;5010893;28;20333;-72
2023/02/27 07:19:56;;;;;;;4.03;2.05;;;;;;;1.47;91.71;103123.63;5011263;28;20209;-72
2023/02/27 07:22:21;;;;;;;3.03;2.00;;;;;;;1.46;91.91;103132.22;5012807;28;20038;-72
2023/02/27 07:24:46;;;;;;;1.98;1.88;;;;;;;1.46;91.93;103132.22;5008948;28;20328;-72
2023/02/27 07:27:12;;;;;;;1.92;1.83;;;;;;;1.45;91.98;103138.19;5017025;28;20099;-72
2023/02/27 07:29:37;;;;;;;2.13;1.88;;;;;;;1.44;91.82;103129.56;5011117;28;20029;-72
2023/02/27 07:32:03;;;;;;;6.03;2.20;;;;;;;1.44;92.08;103141.63;5000947;28;20030;-72
2023/02/27 07:34:28;;;;;;;2.92;2.10;;;;;;;1.43;91.96;103135.53;5004228;28;20353;-72
2023/02/27 07:36:53;;;;;;;4.53;2.20;;;;;;;1.45;92.19;103139.06;4998016;28;20096;-72
2023/02/27 07:39:19;;;;;;;3.30;2.42;;;;;;;1.46;92.30;103137.38;5001506;28;20818;-72
2023/02/27 07:41:44;;;;;;;2.20;2.00;;;;;;;1.47;92.15;103131.38;5007145;28;20042;-72
2023/02/27 07:44:10;;;;;;;3.83;2.10;;;;;;;1.48;92.38;103135.72;5014850;28;20057;-72
2023/02/27 07:46:35;;;;;;;4.47;3.28;;;;;;;1.48;92.27;103134.00;5002707;28;20043;-72
2023/02/27 07:49:01;;;;;;;1.88;1.50;;;;;;;1.49;92.20;103142.63;5001034;28;20040;-72
2023/02/27 07:51:26;;;;;;;2.60;2.00;;;;;;;1.49;92.27;103137.44;5000861;28;20034;-72
2023/02/27 07:53:51;;;;;;;2.30;2.10;;;;;;;1.51;92.36;103136.69;5006522;28;20109;-72
2023/02/27 07:56:17;;;;;;;3.15;1.77;;;;;;;1.53;92.38;103126.44;5001701;28;20222;-72
2023/02/27 07:58:42;;;;;;;3.10;2.17;;;;;;;1.52;92.38;103128.09;5004899;28;20050;-72
2023/02/27 08:01:08;;;;;;;5.32;2.80;;;;;;;1.54;92.38;103133.31;4997974;28;20061;-72
2023/02/27 08:03:33;;;;;;;3.63;2.20;;;;;;;1.55;92.17;103127.34;5010621;28;20679;-72
2023/02/27 08:05:59;;;;;;;3.47;2.15;;;;;;;1.57;92.48;103120.53;5000818;28;20061;-72
2023/02/27 08:08:24;;;;;;;3.67;1.80;;;;;;;1.61;92.46;103134.41;4999059;28;20133;-72
2023/02/27 08:10:49;;;;;;;3.05;1.65;;;;;;;1.61;92.18;103134.41;4999882;28;20042;-72
2023/02/27 08:13:15;;;;;;;5.28;1.80;;;;;;;1.62;92.29;103138.75;4996754;28;20431;-72
2023/02/27 08:15:40;;;;;;;3.15;1.70;;;;;;;1.64;92.40;103140.56;4997065;28;20141;-72
2023/02/27 08:18:06;;;;;;;5.65;1.98;;;;;;;1.66;92.48;103146.66;4992998;28;20046;-72
2023/02/27 08:20:31;;;;;;;4.68;2.60;;;;;;;1.67;92.22;103143.25;4997544;28;20042;-72
2023/02/27 08:22:57;;;;;;;4.00;2.20;;;;;;;1.68;91.87;103144.13;4997535;28;20196;-72
2023/02/27 08:25:23;;;;;;;4.88;2.65;;;;;;;1.69;91.91;103153.63;5003390;28;20045;-72
2023/02/27 08:27:48;;;;;;;4.50;2.60;;;;;;;1.69;91.24;103154.53;5005492;28;20065;-72
2023/02/27 08:30:15;;;;;;;10.27;2.72;;;;;;;1.70;91.46;103156.25;4998115;28;20282;-72
2023/02/27 08:32:41;;;;;;;4.30;2.50;;;;;;;1.70;91.23;103147.63;4996376;28;20293;-72
2023/02/27 08:35:07;;;;;;;6.88;3.03;;;;;;;1.74;91.13;103157.25;4995127;28;20041;-72
2023/02/27 08:37:32;;;;;;;2.15;1.88;;;;;;;1.75;91.16;103156.44;4996819;28;20105;-72
2023/02/27 08:39:58;;;;;;;7.60;2.13;;;;;;;1.79;91.45;103165.16;4995334;28;20042;-72
2023/02/27 08:42:23;;;;;;;2.90;2.20;;;;;;;1.83;91.49;103169.59;4997283;28;20110;-72
2023/02/27 08:44:49;;;;;;;2.47;2.00;;;;;;;1.86;91.68;103169.69;4998093;28;20038;-73
2023/02/27 08:47:15;;;;;;;2.60;1.83;;;;;;;1.89;91.65;103175.84;4980899;28;20034;-72
2023/02/27 08:49:40;;;;;;;1.77;1.55;;;;;;;1.92;91.97;103175.06;4997079;28;20042;-73
2023/02/27 08:52:08;;;;;;;4.00;2.03;;;;;;;1.96;91.96;103163.97;5000369;28;20208;-72
2023/02/27 08:54:33;;;;;;;4.65;2.28;;;;;;;2.00;92.20;103175.28;4998756;28;20044;-73
2023/02/27 08:56:58;;;;;;;7.28;2.38;;;;;;;2.01;92.20;103172.75;4998785;28;20307;-73
2023/02/27 08:59:24;;;;;;;2.78;1.88;;;;;;;2.03;92.05;103178.84;4999250;28;20088;-72
2023/02/27 09:01:49;;;;;;;2.33;1.85;;;;;;;2.06;92.14;103172.94;4999943;28;20054;-72
2023/02/27 09:04:15;;;;;;;4.30;2.22;;;;;;;2.07;91.94;103179.84;5002417;28;20042;-72
2023/02/27 09:06:40;;;;;;;3.50;2.38;;;;;;;2.08;91.73;103182.47;4997070;28;20045;-72
2023/02/27 09:09:06;;;;;;;3.22;2.03;;;;;;;2.11;91.83;103181.69;4996984;28;20233;-72
2023/02/27 09:11:31;;;;;;;3.25;2.58;;;;;;;2.12;91.72;103173.09;5000639;28;20349;-72
2023/02/27 09:13:57;;;;;;;1.80;1.50;;;;;;;2.15;91.71;103180.06;4998989;28;20044;-72
2023/02/27 09:16:23;;;;;;;4.28;2.28;;;;;;;2.14;90.06;103186.09;4994383;28;20250;-73
2023/02/27 09:18:48;;;;;;;4.07;2.10;;;;;;;2.14;89.62;103191.25;4993824;28;20034;-73
2023/02/27 09:21:14;;;;;;;4.30;2.10;;;;;;;2.15;89.97;103185.25;5002211;28;20065;-72
2023/02/27 09:23:39;;;;;;;4.63;2.10;;;;;;;2.16;88.89;103194.78;4998464;28;20055;-72
2023/02/27 09:26:05;;;;;;;5.93;2.00;;;;;;;2.17;88.26;103191.38;5001708;28;20086;-72
2023/02/27 09:28:31;;;;;;;6.55;2.78;;;;;;;2.17;88.02;103194.81;4998493;28;20041;-73
2023/02/27 09:31:04;;;;;;;5.85;2.30;;;;;;;2.20;87.93;103191.44;4998427;28;20046;-72
2023/02/27 09:33:34;;;;;;;7.57;2.40;;;;;;;2.19;88.17;103198.34;4996566;28;20113;-72
2023/02/27 09:36:00;;;;;;;6.60;2.58;;;;;;;2.21;87.98;103196.66;4996737;28;20298;-72
2023/02/27 09:38:25;;;;;;;7.28;2.35;;;;;;;2.24;88.15;103182.97;4996778;28;20085;-72
2023/02/27 09:40:58;;;;;;;6.47;2.78;;;;;;;2.28;88.58;103192.56;5069093;28;20398;-73
2023/02/27 09:43:27;;;;;;;5.75;2.00;;;;;;;2.32;88.75;103185.78;5058624;28;20103;-73
2023/02/27 09:45:54;;;;;;;2.88;2.10;;;;;;;2.37;89.44;103187.69;5060301;28;20056;-73
2023/02/27 09:48:29;;;;;;;3.65;2.55;;;;;;;2.40;89.59;103194.66;5052125;28;20241;-73
2023/02/27 09:50:55;;;;;;;9.25;3.28;;;;;;;2.43;89.59;103190.44;5059270;28;20044;-73
2023/02/27 09:53:46;;;;;;;9.20;2.80;;;;;;;2.46;89.47;103198.31;5058586;28;20068;-73
2023/02/27 09:56:21;;;;;;;8.98;2.22;;;;;;;2.49;88.51;103194.94;5053737;28;20037;-73
2023/02/27 09:59:00;;;;;;;11.38;1.98;;;;;;;2.52;87.96;103194.16;5059309;28;20152;-73
2023/02/27 10:01:36;;;;;;;5.13;2.03;;;;;;;2.55;87.53;103199.41;5055052;28;20044;-73
2023/02/27 10:04:26;;;;;;;3.80;1.77;;;;;;;2.57;87.85;103190.88;5054886;28;20325;-73
2023/02/27 10:07:18;;;;;;;8.52;1.65;;;;;;;2.60;86.83;103191.00;5051832;28;20043;-73
2023/02/27 10:10:03;;;;;;;3.58;1.88;;;;;;;2.62;86.14;103193.59;5052014;28;20074;-73
2023/02/27 10:12:34;;;;;;;1.63;1.30;;;;;;;2.64;86.29;103190.25;5051281;28;20029;-73
2023/02/27 10:15:11;;;;;;;3.63;1.70;;;;;;;2.67;85.83;103189.44;5051842;28;20344;-73
2023/02/27 10:17:48;;;;;;;4.35;1.70;;;;;;;2.70;85.44;103192.13;5051965;28;20033;-71
2023/02/27 10:20:31;;;;;;;4.78;1.55;;;;;;;2.74;85.28;103186.19;5052212;28;20413;-71
2023/02/27 10:23:00;;;;;;;4.38;1.05;;;;;;;2.79;84.70;103197.56;5047913;28;20358;-71
2023/02/27 10:25:26;;;;;;;4.72;1.55;;;;;;;2.84;84.58;103192.53;5050124;28;20352;-71
2023/02/27 10:27:57;;;;;;;3.85;1.08;;;;;;;2.88;83.76;103194.38;5051171;28;20029;-71
2023/02/27 10:30:30;;;;;;;2.65;0.90;;;;;;;2.93;83.11;103195.41;5050932;28;20025;-71
2023/02/27 10:33:11;;;;;;;8.60;0.95;;;;;;;2.96;81.79;103192.88;5050722;28;20079;-71
2023/02/27 10:35:43;;;;;;;2.05;1.00;;;;;;;2.99;81.13;103198.16;5050126;28;20245;-71
2023/02/27 10:38:12;;;;;;;5.78;1.20;;;;;;;3.02;81.55;103193.06;5050621;28;20040;-71
2023/02/27 10:40:39;;;;;;;4.30;1.20;;;;;;;3.04;81.49;103193.13;5050608;28;20052;-71
2023/02/27 10:43:06;;;;;;;2.65;1.13;;;;;;;3.06;81.83;103192.31;5051682;28;20029;-71
2023/02/27 10:45:32;;;;;;;3.60;1.17;;;;;;;3.09;81.07;103194.09;5052355;28;20025;-71
2023/02/27 10:47:57;;;;;;;3.22;1.20;;;;;;;3.13;80.33;103189.88;5052141;28;20036;-71
2023/02/27 10:50:27;;;;;;;3.70;1.48;;;;;;;3.18;80.58;103190.91;5050379;28;20061;-71
2023/02/27 10:52:56;;;;;;;8.95;1.50;;;;;;;3.19;79.87;103187.47;5039531;28;20072;-71
2023/02/27 10:55:28;;;;;;;2.42;1.25;;;;;;;3.21;80.13;103183.22;5036298;28;20033;-71
2023/02/27 10:57:56;;;;;;;2.38;1.05;;;;;;;3.22;79.97;103178.09;5035710;28;20123;-71
2023/02/27 11:00:27;;;;;;;5.15;1.73;;;;;;;3.28;80.02;103181.69;5038086;28;20248;-71
2023/02/27 11:02:53;;;;;;;1.83;1.20;;;;;;;3.32;80.08;103181.78;5038277;28;20029;-71
2023/02/27 11:05:31;;;;;;;2.60;1.10;;;;;;;3.37;78.57;103182.78;5038828;28;20108;-71
2023/02/27 11:08:19;;;;;;;3.53;1.20;;;;;;;3.41;77.97;103176.00;5032533;28;20096;-71
2023/02/27 11:10:58;;;;;;;2.67;1.02;;;;;;;3.48;76.81;103174.44;5038806;28;20017;-71
2023/02/27 11:13:25;;;;;;;1.25;0.88;;;;;;;3.53;74.38;103160.78;5038798;28;20124;-71
2023/02/27 11:16:13;;;;;;;4.47;1.38;;;;;;;3.57;73.99;103165.19;5036782;28;20032;-71
2023/02/27 11:18:44;;;;;;;1.67;0.70;;;;;;;3.60;72.77;103167.88;5035391;28;20039;-71
2023/02/27 11:21:25;;;;;;;3.65;0.82;;;;;;;3.62;70.96;103152.31;5038082;28;20103;-71
2023/02/27 11:24:00;;;;;;;2.28;0.77;;;;;;;3.65;70.29;103153.28;5038583;28;20037;-71
2023/02/27 11:26:33;;;;;;;8.50;1.20;;;;;;;3.65;71.07;103163.66;5038791;28;20021;-71
2023/02/27 11:29:13;;;;;;;3.45;1.13;;;;;;;3.67;70.68;103149.88;5037254;28;20068;-71
2023/02/27 11:31:45;;;;;;;1.65;0.80;;;;;;;3.68;71.12;103154.22;5036425;28;20346;-71
2023/02/27 11:34:38;;;;;;;0.50;0.50;;;;;;;3.68;71.54;103143.88;5038696;28;20037;-71
2023/02/27 11:37:27;;;;;;;1.85;0.80;;;;;;;3.69;71.18;103150.78;5037021;28;20115;-71
2023/02/27 11:40:14;;;;;;;1.67;0.68;;;;;;;3.68;71.52;103139.53;5037980;28;20049;-71
2023/02/27 11:42:46;;;;;;;4.03;1.10;;;;;;;3.69;71.44;103132.63;5036450;28;20095;-71
2023/02/27 11:45:20;;;;;;;2.92;0.80;;;;;;;3.70;70.76;103137.00;5038771;28;20037;-71
2023/02/27 11:47:52;;;;;;;2.50;0.75;;;;;;;3.70;70.96;103134.41;5038477;28;20041;-71
2023/02/27 11:50:55;;;;;;;5.43;1.00;;;;;;;3.72;69.66;103135.31;5038074;28;20036;-71
2023/02/27 11:53:46;;;;;;;6.20;1.00;;;;;;;3.72;70.72;103127.53;4994765;28;20333;-71
2023/02/27 11:56:16;;;;;;;6.32;0.98;;;;;;;3.74;70.45;103126.72;5039311;28;20030;-71